createdAt,value
2017-12-17T00:00:36.858Z,7.03
2017-12-17T00:01:46.976Z,7.01
2017-12-17T00:02:57.030Z,6.94
2017-12-17T00:04:07.090Z,7.08
2017-12-17T00:05:16.886Z,7.03
2017-12-17T00:06:26.944Z,7.01
2017-12-17T00:07:36.998Z,7.08
2017-12-17T00:08:47.070Z,7.04
2017-12-17T00:09:57.233Z,7.11
2017-12-17T00:11:07.058Z,7.08
2017-12-17T00:12:17.106Z,7.09
2017-12-17T00:13:27.162Z,7.01
2017-12-17T00:14:37.225Z,7.08
2017-12-17T00:15:47.301Z,7.09
2017-12-17T00:16:57.099Z,7.12
2017-12-17T00:18:06.894Z,7.13
2017-12-17T00:19:16.171Z,7.11
2017-12-17T00:20:26.226Z,7.18
2017-12-17T00:21:36.516Z,7.11
2017-12-17T00:22:46.555Z,7.03
2017-12-17T00:23:56.605Z,7.05
2017-12-17T00:25:06.707Z,7
2017-12-17T00:26:16.797Z,7.11
2017-12-17T00:27:26.865Z,7.03
2017-12-17T00:28:36.923Z,7.03
2017-12-17T00:29:46.993Z,6.98
2017-12-17T00:30:57.125Z,7.03
2017-12-17T00:32:07.184Z,7.03
2017-12-17T00:33:17.249Z,6.98
2017-12-17T00:34:27.300Z,7
2017-12-17T00:35:37.076Z,6.9
2017-12-17T00:36:46.881Z,6.8
2017-12-17T00:37:57.692Z,6.83
2017-12-17T00:39:07.490Z,6.75
2017-12-17T00:40:17.540Z,6.76
2017-12-17T00:41:28.431Z,6.65
2017-12-17T00:42:38.217Z,6.78
2017-12-17T00:43:48.271Z,6.7
2017-12-17T00:44:58.312Z,6.7
2017-12-17T00:46:08.122Z,6.65
2017-12-17T00:47:18.279Z,6.57
2017-12-17T00:48:28.058Z,6.61
2017-12-17T00:49:37.721Z,6.54
2017-12-17T00:50:47.633Z,6.51
2017-12-17T00:51:56.891Z,6.51
2017-12-17T00:53:06.186Z,6.47
2017-12-17T00:54:16.232Z,6.37
2017-12-17T00:55:26.306Z,6.51
2017-12-17T00:56:36.385Z,6.46
2017-12-17T00:57:46.473Z,6.46
2017-12-17T00:58:56.261Z,6.37
2017-12-17T01:00:06.334Z,6.46
2017-12-17T01:01:16.427Z,6.4
2017-12-17T01:02:26.482Z,6.36
2017-12-17T01:03:36.013Z,6.31
2017-12-17T01:04:46.060Z,6.37
2017-12-17T01:05:56.166Z,6.4
2017-12-17T01:07:06.222Z,6.34
2017-12-17T01:08:16.286Z,6.31
2017-12-17T01:09:26.492Z,6.28
2017-12-17T01:10:36.548Z,6.28
2017-12-17T01:11:46.096Z,6.2
2017-12-17T01:12:55.905Z,6.28
2017-12-17T01:14:05.978Z,6.18
2017-12-17T01:15:16.028Z,6.24
2017-12-17T01:16:26.096Z,6.24
2017-12-17T01:17:36.170Z,6.15
2017-12-17T01:18:46.237Z,6.13
2017-12-17T01:19:56.008Z,6.21
2017-12-17T01:21:06.067Z,6.13
2017-12-17T01:22:16.126Z,6.2
2017-12-17T01:23:26.175Z,6.07
2017-12-17T01:24:35.975Z,6.13
2017-12-17T01:25:46.045Z,6.06
2017-12-17T01:26:55.824Z,5.96
2017-12-17T01:28:05.888Z,6
2017-12-17T01:29:15.963Z,5.99
2017-12-17T01:30:25.758Z,5.98
2017-12-17T01:31:35.541Z,5.89
2017-12-17T01:32:45.337Z,5.88
2017-12-17T01:33:55.380Z,5.89
2017-12-17T01:35:05.412Z,6
2017-12-17T01:36:14.944Z,5.84
2017-12-17T01:37:24.751Z,5.84
2017-12-17T01:38:34.822Z,5.82
2017-12-17T01:39:44.883Z,5.78
2017-12-17T01:40:54.932Z,5.84
2017-12-17T01:42:04.715Z,5.87
2017-12-17T01:43:14.496Z,5.81
2017-12-17T01:44:24.297Z,5.75
2017-12-17T01:45:34.103Z,5.85
2017-12-17T01:46:43.901Z,5.8
2017-12-17T01:47:53.687Z,5.77
2017-12-17T01:49:03.204Z,5.77
2017-12-17T01:50:13.269Z,5.77
2017-12-17T01:51:23.063Z,5.72
2017-12-17T01:52:32.857Z,5.73
2017-12-17T01:53:42.649Z,5.7
2017-12-17T01:54:52.703Z,5.66
2017-12-17T01:56:02.748Z,5.72
2017-12-17T01:57:12.538Z,5.7
2017-12-17T01:58:22.575Z,5.62
2017-12-17T01:59:32.638Z,5.66
2017-12-17T02:00:42.446Z,5.66
2017-12-17T02:01:52.229Z,5.66
2017-12-17T02:03:03.722Z,5.54
2017-12-17T02:04:13.807Z,5.55
2017-12-17T02:05:23.873Z,5.6
2017-12-17T02:06:33.918Z,5.59
2017-12-17T02:07:43.998Z,5.59
2017-12-17T02:09:08.682Z,5.62
2017-12-17T02:10:18.752Z,5.55
2017-12-17T02:11:28.805Z,5.59
2017-12-17T02:12:38.862Z,5.49
2017-12-17T02:13:48.419Z,5.52
2017-12-17T02:14:58.532Z,5.51
2017-12-17T02:16:08.059Z,5.48
2017-12-17T02:17:18.103Z,5.52
2017-12-17T02:18:27.661Z,5.44
2017-12-17T02:19:37.722Z,5.49
2017-12-17T02:20:47.296Z,5.52
2017-12-17T02:21:57.096Z,5.44
2017-12-17T02:23:07.141Z,5.44
2017-12-17T02:24:17.183Z,5.45
2017-12-17T02:25:26.961Z,5.39
2017-12-17T02:26:37.016Z,5.33
2017-12-17T02:27:47.061Z,5.39
2017-12-17T02:28:57.126Z,5.45
2017-12-17T02:30:07.193Z,5.46
2017-12-17T02:31:17.296Z,5.41
2017-12-17T02:32:27.407Z,5.39
2017-12-17T02:33:37.449Z,5.37
2017-12-17T02:34:47.255Z,5.41
2017-12-17T02:35:57.053Z,5.41
2017-12-17T02:37:07.801Z,5.37
2017-12-17T02:38:17.859Z,5.34
2017-12-17T02:39:27.922Z,5.41
2017-12-17T02:40:37.984Z,5.28
2017-12-17T02:41:47.790Z,5.28
2017-12-17T02:42:57.854Z,5.37
2017-12-17T02:44:07.933Z,5.39
2017-12-17T02:45:17.747Z,5.37
2017-12-17T02:46:27.811Z,5.34
2017-12-17T02:47:37.615Z,5.37
2017-12-17T02:48:49.123Z,5.41
2017-12-17T02:49:59.168Z,5.31
2017-12-17T02:51:09.226Z,5.42
2017-12-17T02:52:19.291Z,5.39
2017-12-17T02:53:29.353Z,5.34
2017-12-17T02:54:39.507Z,5.37
2017-12-17T02:55:49.096Z,5.37
2017-12-17T02:56:59.170Z,5.41
2017-12-17T02:58:09.228Z,5.3
2017-12-17T02:59:19.037Z,5.34
2017-12-17T03:00:28.834Z,5.34
2017-12-17T03:01:38.966Z,5.26
2017-12-17T03:33:58.283Z,2.09
2017-12-17T03:35:08.053Z,2.05
2017-12-17T03:36:18.119Z,1.92
2017-12-17T03:37:27.891Z,2.13
2017-12-17T03:38:37.416Z,2.2
2017-12-17T03:39:47.453Z,2.34
2017-12-17T03:40:57.497Z,2.4
2017-12-17T03:42:07.575Z,2.55
2017-12-17T03:43:17.100Z,2.73
2017-12-17T03:44:27.146Z,2.87
2017-12-17T03:45:37.200Z,3.08
2017-12-17T03:46:47.271Z,3.19
2017-12-17T03:47:57.313Z,3.3
2017-12-17T03:49:07.102Z,3.54
2017-12-17T03:50:17.364Z,3.67
2017-12-17T03:51:27.526Z,3.79
2017-12-17T03:52:37.566Z,3.97
2017-12-17T03:53:47.370Z,4.07
2017-12-17T03:54:57.422Z,4.21
2017-12-17T03:56:07.492Z,4.3
2017-12-17T03:57:17.311Z,4.18
2017-12-17T03:58:27.133Z,4.36
2017-12-17T03:59:36.913Z,4.53
2017-12-17T04:00:46.958Z,4.5
2017-12-17T04:01:56.491Z,4.56
2017-12-17T04:03:06.331Z,4.51
2017-12-17T04:04:16.406Z,4.56
2017-12-17T04:05:25.928Z,4.68
2017-12-17T04:06:35.723Z,4.66
2017-12-17T04:07:45.786Z,4.68
2017-12-17T04:08:55.899Z,4.72
2017-12-17T04:10:05.676Z,4.71
2017-12-17T04:11:15.498Z,4.74
2017-12-17T04:12:25.580Z,4.76
2017-12-17T04:13:35.370Z,4.84
2017-12-17T04:14:45.463Z,4.85
2017-12-17T04:15:55.516Z,4.9
2017-12-17T04:17:05.308Z,4.91
2017-12-17T04:18:15.098Z,4.83
2017-12-17T04:19:25.158Z,4.91
2017-12-17T04:20:35.216Z,4.94
2017-12-17T04:21:45.263Z,4.95
2017-12-17T04:22:55.318Z,5.05
2017-12-17T04:24:04.837Z,5.03
2017-12-17T04:25:14.884Z,5.08
2017-12-17T04:26:24.681Z,5.06
2017-12-17T04:27:34.484Z,4.98
2017-12-17T04:28:44.529Z,5.12
2017-12-17T04:29:54.313Z,5.13
2017-12-17T04:31:04.108Z,5.13
2017-12-17T04:32:13.887Z,5.06
2017-12-17T04:33:23.952Z,5.12
2017-12-17T04:34:33.997Z,5.12
2017-12-17T04:35:44.040Z,5.21
2017-12-17T04:36:53.830Z,5.16
2017-12-17T04:38:05.476Z,5.2
2017-12-17T04:39:15.255Z,5.1
2017-12-17T04:40:25.301Z,5.21
2017-12-17T04:41:35.360Z,5.21
2017-12-17T04:42:45.409Z,5.08
2017-12-17T04:43:55.465Z,5.16
2017-12-17T04:45:05.521Z,5.23
2017-12-17T04:46:15.307Z,5.2
2017-12-17T04:47:25.091Z,5.3
2017-12-17T04:48:35.146Z,5.26
2017-12-17T04:49:44.936Z,5.41
2017-12-17T04:50:54.725Z,5.36
2017-12-17T04:52:05.019Z,5.45
2017-12-17T04:53:15.067Z,5.37
2017-12-17T04:54:25.126Z,5.44
2017-12-17T04:55:34.971Z,5.45
2017-12-17T04:56:44.765Z,5.49
2017-12-17T04:57:54.568Z,5.39
2017-12-17T04:59:04.623Z,5.46
2017-12-17T05:00:14.447Z,5.48
2017-12-17T05:01:24.491Z,5.42
2017-12-17T05:02:34.278Z,5.45
2017-12-17T05:03:44.069Z,5.41
2017-12-17T05:04:53.857Z,5.39
2017-12-17T05:06:03.916Z,5.46
2017-12-17T05:07:13.965Z,5.44
2017-12-17T05:08:24.013Z,5.49
2017-12-17T05:09:34.061Z,5.54
2017-12-17T05:10:43.596Z,5.57
2017-12-17T05:11:53.648Z,5.6
2017-12-17T05:13:03.453Z,5.59
2017-12-17T05:14:13.566Z,5.6
2017-12-17T05:15:23.631Z,5.59
2017-12-17T05:16:33.183Z,5.64
2017-12-17T05:17:43.234Z,5.66
2017-12-17T05:18:53.337Z,5.6
2017-12-17T05:20:03.115Z,5.63
2017-12-17T05:21:12.896Z,5.72
2017-12-17T05:22:22.940Z,5.7
2017-12-17T05:23:32.740Z,5.77
2017-12-17T05:24:42.790Z,5.82
2017-12-17T05:25:52.893Z,5.7
2017-12-17T05:27:02.946Z,5.81
2017-12-17T05:28:12.996Z,5.78
2017-12-17T05:29:22.812Z,5.81
2017-12-17T05:30:32.624Z,5.89
2017-12-17T05:31:42.786Z,5.88
2017-12-17T05:32:52.828Z,5.81
2017-12-17T05:34:02.371Z,5.92
2017-12-17T05:35:12.168Z,5.89
2017-12-17T05:36:22.264Z,5.89
2017-12-17T05:37:32.306Z,5.89
2017-12-17T05:38:42.343Z,5.87
2017-12-17T05:39:52.124Z,5.91
2017-12-17T05:41:02.184Z,5.85
2017-12-17T05:42:12.014Z,5.87
2017-12-17T05:43:22.091Z,5.91
2017-12-17T05:44:31.607Z,5.92
2017-12-17T05:45:41.665Z,5.84
2017-12-17T05:46:51.456Z,5.89
2017-12-17T05:48:01.566Z,5.87
2017-12-17T05:49:11.624Z,5.99
2017-12-17T05:50:21.431Z,5.89
2017-12-17T05:51:31.476Z,5.91
2017-12-17T05:52:41.539Z,5.91
2017-12-17T05:53:53.287Z,5.99
2017-12-17T05:55:03.077Z,5.98
2017-12-17T05:56:12.855Z,6.03
2017-12-17T05:57:22.657Z,6.09
2017-12-17T05:58:32.432Z,6.1
2017-12-17T05:59:42.488Z,6.14
2017-12-17T06:00:52.532Z,6.21
2017-12-17T06:02:02.587Z,6.1
2017-12-17T06:03:12.635Z,6.1
2017-12-17T06:04:22.687Z,6.29
2017-12-17T06:05:32.519Z,6.29
2017-12-17T06:06:42.304Z,6.28
2017-12-17T06:07:52.357Z,6.37
2017-12-17T06:09:02.403Z,6.37
2017-12-17T06:10:12.245Z,6.33
2017-12-17T06:11:21.771Z,6.36
2017-12-17T06:12:31.824Z,6.47
2017-12-17T06:13:41.610Z,6.47
2017-12-17T06:14:51.672Z,6.54
2017-12-17T06:16:01.719Z,6.51
2017-12-17T06:17:11.826Z,6.44
2017-12-17T06:18:21.610Z,6.54
2017-12-17T06:19:31.664Z,6.58
2017-12-17T06:20:41.710Z,6.61
2017-12-17T06:21:51.507Z,6.57
2017-12-17T06:23:01.568Z,6.62
2017-12-17T06:24:11.084Z,6.65
2017-12-17T06:25:21.131Z,6.65
2017-12-17T06:26:30.661Z,6.75
2017-12-17T06:27:40.721Z,6.72
2017-12-17T06:28:50.522Z,6.78
2017-12-17T06:30:00.316Z,6.67
2017-12-17T06:31:10.922Z,6.73
2017-12-17T06:32:20.709Z,6.73
2017-12-17T06:33:30.837Z,6.75
2017-12-17T06:34:40.888Z,6.76
2017-12-17T06:35:50.687Z,6.76
2017-12-17T06:37:00.748Z,6.79
2017-12-17T06:38:10.277Z,6.78
2017-12-17T06:39:20.131Z,6.82
2017-12-17T06:40:30.186Z,6.79
2017-12-17T06:41:39.976Z,6.79
2017-12-17T06:42:49.791Z,6.8
2017-12-17T06:43:59.581Z,6.83
2017-12-17T06:45:09.629Z,6.82
2017-12-17T06:46:19.680Z,6.82
2017-12-17T06:47:29.494Z,6.8
2017-12-17T06:48:39.542Z,6.83
2017-12-17T06:49:49.582Z,6.9
2017-12-17T06:50:59.682Z,6.86
2017-12-17T06:52:09.728Z,6.9
2017-12-17T06:53:19.519Z,6.79
2017-12-17T06:54:29.563Z,6.94
2017-12-17T06:55:39.090Z,6.9
2017-12-17T06:56:49.159Z,6.94
2017-12-17T06:57:59.212Z,6.93
2017-12-17T06:59:09.021Z,6.97
2017-12-17T07:00:18.811Z,7.04
2017-12-17T07:01:28.596Z,7
2017-12-17T07:02:38.396Z,7.05
2017-12-17T07:03:48.440Z,7.04
2017-12-17T07:04:57.982Z,7.01
2017-12-17T07:06:07.764Z,7.19
2017-12-17T07:07:17.846Z,7.16
2017-12-17T07:08:27.893Z,7.23
2017-12-17T07:09:37.954Z,7.09
2017-12-17T07:10:48.005Z,7.15
2017-12-17T07:11:57.545Z,7.11
2017-12-17T07:13:07.329Z,7.12
2017-12-17T07:14:17.135Z,7.13
2017-12-17T07:15:26.912Z,7.11
2017-12-17T07:16:37.322Z,7.04
2017-12-17T07:17:47.384Z,7
2017-12-17T07:18:57.177Z,7
2017-12-17T07:20:07.242Z,6.97
2017-12-17T07:21:17.038Z,6.97
2017-12-17T07:22:26.820Z,7.03
2017-12-17T07:23:36.899Z,6.94
2017-12-17T07:24:46.687Z,6.98
2017-12-17T07:25:56.771Z,6.97
2017-12-17T07:27:06.824Z,6.94
2017-12-17T07:28:16.889Z,7
2017-12-17T07:29:28.489Z,6.97
2017-12-17T07:30:38.017Z,6.98
2017-12-17T07:31:47.804Z,7.04
2017-12-17T07:32:57.846Z,7.01
2017-12-17T07:34:07.640Z,7.01
2017-12-17T07:35:17.681Z,6.97
2017-12-17T07:36:27.209Z,7.04
2017-12-17T07:37:37.321Z,7.09
2017-12-17T07:38:47.369Z,7.18
2017-12-17T07:39:57.174Z,7.19
2017-12-17T07:41:07.222Z,7.18
2017-12-17T07:42:17.280Z,7.23
2017-12-17T07:43:27.351Z,7.3
2017-12-17T07:44:37.409Z,7.26
2017-12-17T07:45:47.055Z,7.44
2017-12-17T07:46:57.151Z,7.48
2017-12-17T07:48:06.952Z,7.61
2017-12-17T07:49:17.042Z,7.64
2017-12-17T07:50:27.156Z,7.8
2017-12-17T07:51:36.963Z,7.78
2017-12-17T07:52:47.032Z,7.82
2017-12-17T07:53:57.086Z,7.93
2017-12-17T07:55:06.895Z,7.92
2017-12-17T07:56:16.694Z,7.99
2017-12-17T07:57:26.761Z,8.09
2017-12-17T07:58:36.291Z,8.11
2017-12-17T07:59:46.335Z,8.1
2017-12-17T08:00:56.440Z,8.06
2017-12-17T08:02:06.622Z,7.91
2017-12-17T08:03:16.435Z,7.88
2017-12-17T08:04:26.228Z,7.92
2017-12-17T08:05:36.307Z,7.98
2017-12-17T08:06:46.108Z,7.91
2017-12-17T08:07:56.163Z,7.88
2017-12-17T08:09:06.228Z,7.88
2017-12-17T08:10:16.025Z,7.85
2017-12-17T08:11:25.827Z,7.86
2017-12-17T08:12:35.627Z,7.95
2017-12-17T08:13:45.677Z,7.99
2017-12-17T08:14:55.766Z,8.11
2017-12-17T08:16:05.571Z,8.11
2017-12-17T08:17:15.694Z,8.17
2017-12-17T08:18:25.546Z,8.19
2017-12-17T08:19:36.263Z,8.25
2017-12-17T08:20:46.343Z,8.19
2017-12-17T08:21:56.400Z,8.21
2017-12-17T08:23:08.100Z,8.19
2017-12-17T08:24:18.051Z,8.25
2017-12-17T08:25:27.840Z,8.29
2017-12-17T08:26:37.900Z,8.26
2017-12-17T08:27:47.775Z,8.25
2017-12-17T08:28:57.861Z,8.49
2017-12-17T08:30:07.671Z,8.43
2017-12-17T08:31:18.847Z,8.42
2017-12-17T08:32:28.904Z,8.52
2017-12-17T08:33:39.014Z,8.54
2017-12-17T08:34:49.082Z,8.6
2017-12-17T08:35:59.211Z,8.68
2017-12-17T08:37:11.918Z,8.9
2017-12-17T08:38:21.732Z,9.3
2017-12-17T08:39:31.273Z,9.47
2017-12-17T08:40:41.355Z,9.62
2017-12-17T08:41:51.164Z,9.72
2017-12-17T08:43:02.534Z,9.67
2017-12-17T08:44:12.642Z,9.92
2017-12-17T08:45:22.457Z,10.1
2017-12-17T08:46:32.536Z,10.14
2017-12-17T08:47:42.616Z,10.29
2017-12-17T08:48:52.701Z,10.13
2017-12-17T08:50:03.229Z,9.99
2017-12-17T08:51:13.308Z,10
2017-12-17T08:52:23.373Z,9.84
2017-12-17T08:53:33.432Z,9.72
2017-12-17T08:54:43.243Z,9.67
2017-12-17T08:55:53.300Z,9.55
2017-12-17T08:57:04.952Z,9.48
2017-12-17T08:58:14.778Z,9.38
2017-12-17T08:59:24.880Z,9.35
2017-12-17T09:00:36.647Z,9.26
2017-12-17T09:01:46.440Z,9.17
2017-12-17T09:02:56.520Z,9.04
2017-12-17T09:04:06.689Z,8.9
2017-12-17T09:05:18.410Z,8.8
2017-12-17T09:06:31.130Z,8.77
2017-12-17T09:07:41.889Z,8.67
2017-12-17T09:08:52.329Z,8.67
2017-12-17T09:10:02.544Z,8.62
2017-12-17T09:11:12.373Z,8.69
2017-12-17T09:12:22.195Z,8.76
2017-12-17T09:13:32.256Z,8.98
2017-12-17T09:14:42.325Z,9.21
2017-12-17T09:15:52.201Z,9.41
2017-12-17T09:17:01.991Z,9.55
2017-12-17T09:18:11.805Z,9.7
2017-12-17T09:19:21.860Z,9.84
2017-12-17T09:20:31.956Z,9.92
2017-12-17T09:21:41.758Z,9.99
2017-12-17T09:22:51.303Z,10.15
2017-12-17T09:24:01.362Z,10.33
2017-12-17T09:25:11.433Z,10.44
2017-12-17T09:26:21.504Z,10.59
2017-12-17T09:27:31.640Z,10.66
2017-12-17T09:28:41.712Z,10.75
2017-12-17T09:29:51.847Z,10.84
2017-12-17T09:31:01.652Z,10.85
2017-12-17T09:32:11.212Z,10.85
2017-12-17T09:33:21.010Z,10.84
2017-12-17T09:34:30.847Z,10.85
2017-12-17T09:35:40.412Z,10.87
2017-12-17T09:36:50.481Z,10.91
2017-12-17T09:38:02.361Z,10.69
2017-12-17T09:39:12.490Z,10.66
2017-12-17T09:40:22.564Z,10.49
2017-12-17T09:41:32.658Z,10.41
2017-12-17T09:42:42.725Z,10.47
2017-12-17T09:43:52.601Z,10.67
2017-12-17T09:45:02.449Z,10.69
2017-12-17T09:46:12.521Z,10.69
2017-12-17T09:47:22.081Z,10.35
2017-12-17T09:48:31.897Z,10.14
2017-12-17T09:49:41.987Z,9.93
2017-12-17T09:50:52.058Z,9.84
2017-12-17T09:52:02.140Z,9.71
2017-12-17T09:53:11.962Z,9.52
2017-12-17T09:54:21.798Z,9.44
2017-12-17T09:55:31.909Z,9.26
2017-12-17T09:56:43.080Z,9.21
2017-12-17T09:57:52.895Z,9.11
2017-12-17T09:59:03.041Z,9.16
2017-12-17T10:00:12.858Z,9.01
2017-12-17T10:01:22.664Z,8.89
2017-12-17T10:02:32.749Z,8.86
2017-12-17T10:03:42.865Z,8.76
2017-12-17T10:04:52.674Z,8.74
2017-12-17T10:06:02.215Z,8.61
2017-12-17T10:07:12.033Z,8.62
2017-12-17T10:08:22.143Z,8.52
2017-12-17T10:09:31.959Z,8.5
2017-12-17T10:10:41.792Z,8.57
2017-12-17T10:11:51.859Z,8.46
2017-12-17T10:13:01.418Z,8.52
2017-12-17T10:14:11.211Z,8.44
2017-12-17T10:15:21.274Z,8.49
2017-12-17T10:16:31.097Z,8.42
2017-12-17T10:17:41.184Z,8.79
2017-12-17T10:18:51.272Z,8.86
2017-12-17T10:20:01.431Z,9.17
2017-12-17T10:21:11.531Z,9.41
2017-12-17T10:22:21.627Z,9.64
2017-12-17T10:23:31.711Z,9.74
2017-12-17T10:24:41.320Z,9.85
2017-12-17T10:25:52.633Z,10.05
2017-12-17T10:27:02.451Z,10.17
2017-12-17T10:28:12.604Z,10.28
2017-12-17T10:29:22.430Z,10.35
2017-12-17T10:30:32.506Z,10.39
2017-12-17T10:31:42.360Z,10.54
2017-12-17T10:32:52.448Z,10.55
2017-12-17T10:34:02.270Z,10.7
2017-12-17T10:35:12.085Z,10.85
2017-12-17T10:36:22.421Z,10.84
2017-12-17T10:37:32.546Z,10.88
2017-12-17T10:38:42.662Z,10.98
2017-12-17T10:39:54.015Z,11.03
2017-12-17T10:41:03.534Z,11.03
2017-12-17T10:42:13.636Z,11.03
2017-12-17T10:43:23.499Z,11.12
2017-12-17T10:44:33.078Z,11.08
2017-12-17T10:45:42.884Z,10.77
2017-12-17T10:46:53.164Z,10.44
2017-12-17T10:48:03.510Z,10.15
2017-12-17T10:49:13.591Z,9.96
2017-12-17T10:50:23.129Z,9.9
2017-12-17T10:51:32.672Z,9.63
2017-12-17T10:52:42.768Z,9.64
2017-12-17T10:53:52.302Z,9.55
2017-12-17T10:55:02.104Z,9.45
2017-12-17T10:56:12.151Z,9.37
2017-12-17T10:57:22.218Z,9.3
2017-12-17T10:58:32.271Z,9.35
2017-12-17T10:59:42.081Z,9.23
2017-12-17T11:00:51.892Z,9.47
2017-12-17T11:02:01.946Z,9.81
2017-12-17T11:03:12.015Z,10
2017-12-17T11:04:21.848Z,10.33
2017-12-17T11:05:31.652Z,10.66
2017-12-17T11:06:41.500Z,10.51
2017-12-17T11:07:51.580Z,10.69
2017-12-17T11:09:01.674Z,10.87
2017-12-17T11:10:11.468Z,11.03
2017-12-17T11:11:21.580Z,10.95
2017-12-17T11:12:31.988Z,10.83
2017-12-17T11:13:42.069Z,10.67
2017-12-17T11:14:52.198Z,10.38
2017-12-17T11:16:02.303Z,10.25
2017-12-17T11:17:12.391Z,9.99
2017-12-17T11:18:22.520Z,9.93
2017-12-17T11:19:32.594Z,9.75
2017-12-17T11:20:42.411Z,9.8
2017-12-17T11:21:52.474Z,9.64
2017-12-17T11:23:02.290Z,9.57
2017-12-17T11:24:12.428Z,9.66
2017-12-17T11:25:22.520Z,9.71
2017-12-17T11:26:32.313Z,9.63
2017-12-17T11:27:42.390Z,9.66
2017-12-17T11:28:52.812Z,9.8
2017-12-17T11:30:02.627Z,9.75
2017-12-17T11:31:12.722Z,9.75
2017-12-17T11:32:22.786Z,9.71
2017-12-17T11:33:32.607Z,9.8
2017-12-17T11:34:42.667Z,9.8
2017-12-17T11:35:52.796Z,9.81
2017-12-17T11:37:02.626Z,9.75
2017-12-17T11:38:12.473Z,9.78
2017-12-17T11:39:22.918Z,9.82
2017-12-17T11:40:32.773Z,9.88
2017-12-17T11:41:42.876Z,9.82
2017-12-17T11:42:52.665Z,9.99
2017-12-17T11:44:02.219Z,9.93
2017-12-17T11:45:12.272Z,9.99
2017-12-17T11:46:22.369Z,10.07
2017-12-17T11:47:31.960Z,10.32
2017-12-17T11:48:42.049Z,10.79
2017-12-17T11:49:52.122Z,11.2
2017-12-17T11:51:02.203Z,11.38
2017-12-17T11:52:12.285Z,11.57
2017-12-17T11:53:22.350Z,11.79
2017-12-17T11:54:32.140Z,11.94
2017-12-17T11:55:41.703Z,11.88
2017-12-17T11:56:51.519Z,12.2
2017-12-17T11:58:01.345Z,12.2
2017-12-17T11:59:11.198Z,12.38
2017-12-17T12:00:21.287Z,12.47
2017-12-17T12:01:31.364Z,12.61
2017-12-17T12:02:41.165Z,12.7
2017-12-17T12:03:50.967Z,12.89
2017-12-17T12:05:01.116Z,13.03
2017-12-17T12:06:12.246Z,13.09
2017-12-17T12:07:22.390Z,13.1
2017-12-17T12:08:32.482Z,13.16
2017-12-17T12:09:42.322Z,13.16
2017-12-17T12:10:52.393Z,13.25
2017-12-17T12:12:01.942Z,13.29
2017-12-17T12:13:12.041Z,13.36
2017-12-17T12:14:21.580Z,13.28
2017-12-17T12:15:31.652Z,13.24
2017-12-17T12:16:45.496Z,13.07
2017-12-17T12:17:55.380Z,13.29
2017-12-17T12:19:05.468Z,12.99
2017-12-17T12:20:15.526Z,12.58
2017-12-17T12:21:25.591Z,12.31
2017-12-17T12:22:35.709Z,12.1
2017-12-17T12:23:45.758Z,12.04
2017-12-17T12:24:55.835Z,11.91
2017-12-17T12:26:05.928Z,11.81
2017-12-17T12:27:15.712Z,11.64
2017-12-17T12:28:25.516Z,11.52
2017-12-17T12:29:35.317Z,11.57
2017-12-17T12:30:45.116Z,11.34
2017-12-17T12:31:54.976Z,11.21
2017-12-17T12:33:05.052Z,11.24
2017-12-17T12:34:14.873Z,11.21
2017-12-17T12:35:26.498Z,11.24
2017-12-17T12:36:36.320Z,11.18
2017-12-17T12:37:46.380Z,11.1
2017-12-17T12:38:56.187Z,11.09
2017-12-17T12:40:06.023Z,11
2017-12-17T12:41:15.842Z,11.05
2017-12-17T12:42:25.669Z,11.02
2017-12-17T12:43:35.751Z,10.92
2017-12-17T12:44:45.827Z,10.85
2017-12-17T12:45:55.696Z,10.87
2017-12-17T12:47:05.540Z,10.84
2017-12-17T12:48:15.630Z,10.77
2017-12-17T12:49:25.709Z,10.79
2017-12-17T12:50:35.791Z,10.69
2017-12-17T12:51:45.857Z,10.67
2017-12-17T12:52:55.936Z,10.67
2017-12-17T12:54:05.989Z,10.67
2017-12-17T12:55:16.060Z,10.55
2017-12-17T12:56:26.130Z,10.67
2017-12-17T12:57:36.207Z,10.72
2017-12-17T12:58:46.276Z,10.77
2017-12-17T12:59:56.356Z,10.77
2017-12-17T13:01:06.156Z,10.8
2017-12-17T13:02:15.958Z,10.75
2017-12-17T13:03:26.116Z,10.79
2017-12-17T13:04:36.213Z,10.8
2017-12-17T13:05:46.273Z,10.91
2017-12-17T13:06:56.079Z,10.88
2017-12-17T13:08:06.152Z,10.98
2017-12-17T13:09:16.291Z,11.03
2017-12-17T13:10:26.392Z,11.02
2017-12-17T13:11:36.468Z,10.97
2017-12-17T13:12:46.281Z,10.87
2017-12-17T13:13:56.099Z,10.79
2017-12-17T13:15:06.192Z,10.7
2017-12-17T13:16:15.991Z,10.65
2017-12-17T13:17:26.061Z,10.41
2017-12-17T13:18:35.846Z,10.31
2017-12-17T13:19:45.923Z,10.1
2017-12-17T13:20:55.739Z,9.84
2017-12-17T13:22:05.806Z,9.71
2017-12-17T13:23:15.965Z,9.56
2017-12-17T13:24:26.043Z,9.5
2017-12-17T13:25:36.162Z,9.27
2017-12-17T13:26:46.306Z,9.26
2017-12-17T13:27:56.368Z,9.2
2017-12-17T13:29:06.431Z,9.12
2017-12-17T13:30:16.254Z,8.94
2017-12-17T13:31:26.067Z,8.72
2017-12-17T13:32:35.615Z,8.71
2017-12-17T13:33:45.403Z,8.5
2017-12-17T13:34:54.922Z,8.4
2017-12-17T13:36:05.012Z,8.22
2017-12-17T13:37:15.076Z,8.14
2017-12-17T13:38:24.865Z,8.11
2017-12-17T13:39:34.971Z,8.09
2017-12-17T13:40:44.776Z,8.09
2017-12-17T13:41:54.858Z,8.07
2017-12-17T13:43:04.652Z,8.04
2017-12-17T13:44:14.969Z,8.04
2017-12-17T13:45:26.681Z,7.93
2017-12-17T13:46:36.763Z,8.07
2017-12-17T13:47:46.855Z,8.01
2017-12-17T13:48:57.110Z,8.06
2017-12-17T13:50:07.221Z,7.98
2017-12-17T13:51:17.051Z,8.16
2017-12-17T13:52:27.268Z,8.14
2017-12-17T13:53:37.035Z,8.25
2017-12-17T13:54:47.141Z,8.28
2017-12-17T13:55:57.222Z,8.28
2017-12-17T13:57:07.015Z,8.31
2017-12-17T13:58:17.092Z,8.17
2017-12-17T13:59:27.296Z,8.17
2017-12-17T14:00:37.383Z,7.99
2017-12-17T14:01:47.243Z,7.98
2017-12-17T14:02:57.322Z,7.96
2017-12-17T14:04:08.681Z,7.91
2017-12-17T14:05:18.522Z,7.78
2017-12-17T14:06:28.734Z,7.67
2017-12-17T14:07:38.858Z,7.71
2017-12-17T14:08:48.771Z,7.58
2017-12-17T14:09:58.653Z,7.52
2017-12-17T14:11:08.603Z,7.54
2017-12-17T14:12:18.704Z,7.49
2017-12-17T14:13:28.586Z,7.49
2017-12-17T14:14:38.508Z,7.48
2017-12-17T14:15:48.385Z,7.34
2017-12-17T14:16:58.602Z,7.41
2017-12-17T14:18:08.488Z,7.36
2017-12-17T14:19:18.112Z,7.19
2017-12-17T14:20:28.229Z,7.26
2017-12-17T14:21:38.346Z,7.19
2017-12-17T14:22:48.465Z,7.19
2017-12-17T14:23:58.319Z,7.13
2017-12-17T14:25:08.018Z,7.12
2017-12-17T14:26:17.831Z,7.05
2017-12-17T14:27:27.407Z,7.08
2017-12-17T14:28:37.216Z,7.04
2017-12-17T14:29:47.289Z,7.05
2017-12-17T14:30:57.349Z,7.16
2017-12-17T14:32:07.157Z,7.05
2017-12-17T14:33:17.225Z,7
2017-12-17T14:34:28.658Z,6.98
2017-12-17T14:35:38.780Z,6.98
2017-12-17T14:36:48.856Z,6.95
2017-12-17T14:37:58.706Z,6.91
2017-12-17T14:39:08.770Z,6.85
2017-12-17T14:40:18.882Z,6.94
2017-12-17T14:41:28.731Z,6.88
2017-12-17T14:42:38.926Z,6.9
2017-12-17T14:43:48.203Z,6.78
2017-12-17T14:44:58.330Z,6.79
2017-12-17T14:46:08.228Z,6.8
2017-12-17T14:47:18.381Z,6.82
2017-12-17T14:48:28.340Z,6.82
2017-12-17T14:49:38.174Z,6.78
2017-12-17T14:50:48.332Z,6.82
2017-12-17T14:51:58.431Z,6.85
2017-12-17T14:53:08.293Z,6.8
2017-12-17T14:54:18.460Z,6.93
2017-12-17T14:55:28.320Z,6.85
2017-12-17T14:56:38.475Z,6.83
2017-12-17T14:57:48.625Z,6.9
2017-12-17T14:58:58.606Z,6.85
2017-12-17T15:00:08.298Z,7.04
2017-12-17T15:01:18.452Z,7
2017-12-17T15:02:28.331Z,7.11
2017-12-17T15:03:37.688Z,7.09
2017-12-17T15:04:47.828Z,7.12
2017-12-17T15:05:57.956Z,7.09
2017-12-17T15:07:08.032Z,7.16
2017-12-17T15:08:18.118Z,7.18
2017-12-17T15:09:28.210Z,7.15
2017-12-17T15:10:38.056Z,7.03
2017-12-17T15:11:47.869Z,7
2017-12-17T15:12:57.680Z,7.01
2017-12-17T15:14:07.789Z,7.03
2017-12-17T15:15:17.842Z,7.03
2017-12-17T15:16:27.943Z,6.91
2017-12-17T15:17:38.028Z,6.83
2017-12-17T15:18:48.189Z,6.86
2017-12-17T15:19:58.307Z,6.86
2017-12-17T15:21:08.184Z,6.9
2017-12-17T15:22:18.026Z,6.82
2017-12-17T15:23:27.352Z,6.8
2017-12-17T15:24:37.443Z,6.93
2017-12-17T15:25:47.527Z,6.97
2017-12-17T15:26:57.611Z,6.86
2017-12-17T15:28:07.689Z,6.93
2017-12-17T15:29:17.291Z,6.98
2017-12-17T15:30:27.382Z,6.98
2017-12-17T15:31:37.522Z,6.8
2017-12-17T15:32:47.419Z,6.79
2017-12-17T15:33:56.967Z,6.79
2017-12-17T15:35:06.840Z,6.76
2017-12-17T15:36:16.658Z,6.73
2017-12-17T15:37:26.475Z,6.72
2017-12-17T15:38:36.563Z,6.75
2017-12-17T15:39:46.643Z,6.67
2017-12-17T15:40:56.431Z,6.68
2017-12-17T15:42:06.512Z,6.78
2017-12-17T15:43:16.563Z,6.64
2017-12-17T15:44:26.376Z,6.54
2017-12-17T15:45:36.468Z,6.57
2017-12-17T15:46:46.288Z,6.52
2017-12-17T15:47:56.100Z,6.46
2017-12-17T15:49:06.175Z,6.47
2017-12-17T15:50:15.986Z,6.42
2017-12-17T15:51:25.791Z,6.4
2017-12-17T15:52:35.612Z,6.42
2017-12-17T15:53:45.441Z,6.33
2017-12-17T15:54:55.258Z,6.37
2017-12-17T15:56:05.325Z,6.31
2017-12-17T15:57:15.154Z,6.31
2017-12-17T15:58:24.962Z,6.24
2017-12-17T15:59:34.872Z,6.29
2017-12-17T16:00:44.941Z,6.2
2017-12-17T16:01:55.021Z,6.13